sensor_id;sensor_type;location;lat;lon;timestamp;P1;durP1;ratioP1;P2;durP2;ratioP2
8540;SDS011;4308;51.294;6.590;2022-08-30T00:01:09;1.43;;;1.33;;
8540;SDS011;4308;51.294;6.590;2022-08-30T00:03:42;3.83;;;1.90;;
8540;SDS011;4308;51.294;6.590;2022-08-30T00:06:10;4.27;;;2.40;;
8540;SDS011;4308;51.294;6.590;2022-08-30T00:08:38;3.83;;;2.30;;
8540;SDS011;4308;51.294;6.590;2022-08-30T00:11:07;4.27;;;2.20;;
8540;SDS011;4308;51.294;6.590;2022-08-30T00:13:38;6.50;;;2.93;;
8540;SDS011;4308;51.294;6.590;2022-08-30T00:16:06;8.83;;;2.83;;
8540;SDS011;4308;51.294;6.590;2022-08-30T00:18:35;6.20;;;2.30;;
8540;SDS011;4308;51.294;6.590;2022-08-30T00:21:03;8.47;;;2.10;;
8540;SDS011;4308;51.294;6.590;2022-08-30T00:23:31;7.17;;;2.70;;
8540;SDS011;4308;51.294;6.590;2022-08-30T00:25:58;6.17;;;3.23;;
8540;SDS011;4308;51.294;6.590;2022-08-30T00:28:26;8.07;;;3.27;;
8540;SDS011;4308;51.294;6.590;2022-08-30T00:30:54;7.23;;;2.40;;
8540;SDS011;4308;51.294;6.590;2022-08-30T00:33:22;5.00;;;2.70;;
8540;SDS011;4308;51.294;6.590;2022-08-30T00:35:49;5.57;;;2.83;;
8540;SDS011;4308;51.294;6.590;2022-08-30T00:38:17;3.87;;;2.53;;
8540;SDS011;4308;51.294;6.590;2022-08-30T00:40:44;4.07;;;2.63;;
8540;SDS011;4308;51.294;6.590;2022-08-30T00:43:15;3.40;;;2.40;;
8540;SDS011;4308;51.294;6.590;2022-08-30T00:45:44;6.40;;;2.57;;
8540;SDS011;4308;51.294;6.590;2022-08-30T00:48:12;5.90;;;2.03;;
8540;SDS011;4308;51.294;6.590;2022-08-30T00:50:45;6.53;;;3.20;;
8540;SDS011;4308;51.294;6.590;2022-08-30T00:53:17;4.90;;;3.20;;
8540;SDS011;4308;51.294;6.590;2022-08-30T00:55:46;7.43;;;2.70;;
8540;SDS011;4308;51.294;6.590;2022-08-30T00:58:16;4.40;;;2.50;;
8540;SDS011;4308;51.294;6.590;2022-08-30T01:00:45;9.00;;;2.50;;
8540;SDS011;4308;51.294;6.590;2022-08-30T01:03:12;5.57;;;2.50;;
8540;SDS011;4308;51.294;6.590;2022-08-30T01:05:40;5.00;;;3.07;;
8540;SDS011;4308;51.294;6.590;2022-08-30T01:08:08;4.03;;;2.70;;
8540;SDS011;4308;51.294;6.590;2022-08-30T01:10:36;4.17;;;2.70;;
8540;SDS011;4308;51.294;6.590;2022-08-30T01:13:04;4.60;;;3.03;;
8540;SDS011;4308;51.294;6.590;2022-08-30T01:15:32;10.20;;;2.70;;
8540;SDS011;4308;51.294;6.590;2022-08-30T01:17:59;4.37;;;2.93;;
8540;SDS011;4308;51.294;6.590;2022-08-30T01:20:32;4.33;;;2.73;;
8540;SDS011;4308;51.294;6.590;2022-08-30T01:23:12;6.87;;;2.57;;
8540;SDS011;4308;51.294;6.590;2022-08-30T01:25:41;5.57;;;2.97;;
8540;SDS011;4308;51.294;6.590;2022-08-30T01:28:10;3.23;;;2.27;;
8540;SDS011;4308;51.294;6.590;2022-08-30T01:30:38;4.73;;;2.97;;
8540;SDS011;4308;51.294;6.590;2022-08-30T01:33:06;9.60;;;2.67;;
8540;SDS011;4308;51.294;6.590;2022-08-30T01:36:16;4.67;;;2.30;;
8540;SDS011;4308;51.294;6.590;2022-08-30T01:38:25;5.90;;;2.93;;
8540;SDS011;4308;51.294;6.590;2022-08-30T01:41:04;5.07;;;2.57;;
8540;SDS011;4308;51.294;6.590;2022-08-30T01:43:34;4.87;;;3.10;;
8540;SDS011;4308;51.294;6.590;2022-08-30T01:46:03;6.27;;;3.13;;
8540;SDS011;4308;51.294;6.590;2022-08-30T01:48:31;4.30;;;2.90;;
8540;SDS011;4308;51.294;6.590;2022-08-30T01:51:01;6.07;;;3.00;;
8540;SDS011;4308;51.294;6.590;2022-08-30T01:53:29;6.53;;;3.10;;
8540;SDS011;4308;51.294;6.590;2022-08-30T01:55:56;7.87;;;3.23;;
8540;SDS011;4308;51.294;6.590;2022-08-30T01:58:24;3.70;;;2.83;;
8540;SDS011;4308;51.294;6.590;2022-08-30T02:00:52;8.97;;;2.90;;
8540;SDS011;4308;51.294;6.590;2022-08-30T02:03:20;2.90;;;2.40;;
8540;SDS011;4308;51.294;6.590;2022-08-30T02:05:47;5.83;;;3.10;;
8540;SDS011;4308;51.294;6.590;2022-08-30T02:08:15;5.83;;;2.27;;
8540;SDS011;4308;51.294;6.590;2022-08-30T02:10:42;3.20;;;2.60;;
8540;SDS011;4308;51.294;6.590;2022-08-30T02:13:10;7.07;;;3.03;;
8540;SDS011;4308;51.294;6.590;2022-08-30T02:15:37;3.57;;;2.93;;
8540;SDS011;4308;51.294;6.590;2022-08-30T02:18:07;5.37;;;2.90;;
8540;SDS011;4308;51.294;6.590;2022-08-30T02:20:36;4.80;;;3.07;;
8540;SDS011;4308;51.294;6.590;2022-08-30T02:23:04;5.90;;;2.70;;
8540;SDS011;4308;51.294;6.590;2022-08-30T02:25:31;4.93;;;2.77;;
8540;SDS011;4308;51.294;6.590;2022-08-30T02:27:59;4.70;;;2.53;;
8540;SDS011;4308;51.294;6.590;2022-08-30T02:30:27;7.13;;;3.00;;
8540;SDS011;4308;51.294;6.590;2022-08-30T02:32:55;4.40;;;3.07;;
8540;SDS011;4308;51.294;6.590;2022-08-30T02:35:22;6.57;;;2.80;;
8540;SDS011;4308;51.294;6.590;2022-08-30T02:37:50;4.57;;;3.10;;
8540;SDS011;4308;51.294;6.590;2022-08-30T02:40:18;6.13;;;3.07;;
8540;SDS011;4308;51.294;6.590;2022-08-30T02:42:45;5.83;;;3.60;;
8540;SDS011;4308;51.294;6.590;2022-08-30T02:45:13;9.40;;;3.23;;
8540;SDS011;4308;51.294;6.590;2022-08-30T02:47:42;4.43;;;2.10;;
8540;SDS011;4308;51.294;6.590;2022-08-30T02:50:13;6.53;;;3.37;;
8540;SDS011;4308;51.294;6.590;2022-08-30T02:52:40;5.03;;;2.93;;
8540;SDS011;4308;51.294;6.590;2022-08-30T02:55:10;4.63;;;2.93;;
8540;SDS011;4308;51.294;6.590;2022-08-30T02:57:38;5.07;;;3.13;;
8540;SDS011;4308;51.294;6.590;2022-08-30T03:00:06;4.17;;;2.73;;
8540;SDS011;4308;51.294;6.590;2022-08-30T03:02:34;3.20;;;2.87;;
8540;SDS011;4308;51.294;6.590;2022-08-30T03:05:02;2.63;;;2.27;;
8540;SDS011;4308;51.294;6.590;2022-08-30T03:07:30;3.70;;;2.87;;
8540;SDS011;4308;51.294;6.590;2022-08-30T03:09:57;6.60;;;3.23;;
8540;SDS011;4308;51.294;6.590;2022-08-30T03:12:24;3.07;;;2.67;;
8540;SDS011;4308;51.294;6.590;2022-08-30T03:14:52;4.13;;;2.83;;
8540;SDS011;4308;51.294;6.590;2022-08-30T03:17:20;4.53;;;2.40;;
8540;SDS011;4308;51.294;6.590;2022-08-30T03:19:47;3.40;;;2.90;;
8540;SDS011;4308;51.294;6.590;2022-08-30T03:22:15;5.03;;;3.13;;
8540;SDS011;4308;51.294;6.590;2022-08-30T03:24:43;6.57;;;3.47;;
8540;SDS011;4308;51.294;6.590;2022-08-30T03:27:11;3.97;;;3.07;;
8540;SDS011;4308;51.294;6.590;2022-08-30T03:29:38;5.17;;;3.27;;
8540;SDS011;4308;51.294;6.590;2022-08-30T03:32:06;3.80;;;3.07;;
8540;SDS011;4308;51.294;6.590;2022-08-30T03:34:33;4.67;;;2.93;;
8540;SDS011;4308;51.294;6.590;2022-08-30T03:37:01;3.93;;;3.13;;
8540;SDS011;4308;51.294;6.590;2022-08-30T03:39:28;5.03;;;3.17;;
8540;SDS011;4308;51.294;6.590;2022-08-30T03:41:56;5.83;;;3.27;;
8540;SDS011;4308;51.294;6.590;2022-08-30T03:44:24;9.37;;;3.77;;
8540;SDS011;4308;51.294;6.590;2022-08-30T03:46:53;7.30;;;3.90;;
8540;SDS011;4308;51.294;6.590;2022-08-30T03:49:21;4.77;;;3.67;;
8540;SDS011;4308;51.294;6.590;2022-08-30T03:51:49;4.60;;;3.27;;
8540;SDS011;4308;51.294;6.590;2022-08-30T03:54:16;5.83;;;3.10;;
8540;SDS011;4308;51.294;6.590;2022-08-30T03:56:44;5.43;;;2.83;;
8540;SDS011;4308;51.294;6.590;2022-08-30T03:59:12;6.47;;;3.33;;
8540;SDS011;4308;51.294;6.590;2022-08-30T04:01:40;5.33;;;3.23;;
8540;SDS011;4308;51.294;6.590;2022-08-30T04:04:07;5.40;;;3.63;;
8540;SDS011;4308;51.294;6.590;2022-08-30T04:06:35;5.00;;;2.87;;
8540;SDS011;4308;51.294;6.590;2022-08-30T04:09:03;5.37;;;3.20;;
8540;SDS011;4308;51.294;6.590;2022-08-30T04:11:30;3.70;;;3.20;;
8540;SDS011;4308;51.294;6.590;2022-08-30T04:13:58;3.90;;;2.40;;
8540;SDS011;4308;51.294;6.590;2022-08-30T04:16:25;8.30;;;3.60;;
8540;SDS011;4308;51.294;6.590;2022-08-30T04:18:53;4.77;;;3.17;;
8540;SDS011;4308;51.294;6.590;2022-08-30T04:21:21;4.80;;;3.37;;
8540;SDS011;4308;51.294;6.590;2022-08-30T04:23:48;5.37;;;2.87;;
8540;SDS011;4308;51.294;6.590;2022-08-30T04:26:16;4.80;;;3.07;;
8540;SDS011;4308;51.294;6.590;2022-08-30T04:28:43;3.67;;;2.90;;
8540;SDS011;4308;51.294;6.590;2022-08-30T04:31:13;7.80;;;3.70;;
8540;SDS011;4308;51.294;6.590;2022-08-30T04:33:41;3.73;;;3.33;;
8540;SDS011;4308;51.294;6.590;2022-08-30T04:36:09;4.57;;;2.63;;
8540;SDS011;4308;51.294;6.590;2022-08-30T04:38:37;3.63;;;3.00;;
8540;SDS011;4308;51.294;6.590;2022-08-30T04:41:09;4.67;;;3.10;;
8540;SDS011;4308;51.294;6.590;2022-08-30T04:43:37;4.40;;;3.30;;
8540;SDS011;4308;51.294;6.590;2022-08-30T04:46:06;6.57;;;3.00;;
8540;SDS011;4308;51.294;6.590;2022-08-30T04:48:34;6.50;;;3.43;;
8540;SDS011;4308;51.294;6.590;2022-08-30T04:51:03;14.97;;;4.50;;
8540;SDS011;4308;51.294;6.590;2022-08-30T04:53:31;7.00;;;3.37;;
8540;SDS011;4308;51.294;6.590;2022-08-30T04:55:58;15.03;;;4.43;;
8540;SDS011;4308;51.294;6.590;2022-08-30T04:58:26;6.37;;;3.40;;
8540;SDS011;4308;51.294;6.590;2022-08-30T05:00:54;7.63;;;3.63;;
8540;SDS011;4308;51.294;6.590;2022-08-30T05:03:21;4.63;;;3.40;;
8540;SDS011;4308;51.294;6.590;2022-08-30T05:05:49;5.60;;;3.57;;
8540;SDS011;4308;51.294;6.590;2022-08-30T05:08:18;4.37;;;3.00;;
8540;SDS011;4308;51.294;6.590;2022-08-30T05:10:51;6.87;;;3.60;;
8540;SDS011;4308;51.294;6.590;2022-08-30T05:13:19;15.50;;;4.07;;
8540;SDS011;4308;51.294;6.590;2022-08-30T05:16:02;6.33;;;3.30;;
8540;SDS011;4308;51.294;6.590;2022-08-30T05:18:30;5.70;;;3.23;;
8540;SDS011;4308;51.294;6.590;2022-08-30T05:21:08;4.90;;;3.30;;
8540;SDS011;4308;51.294;6.590;2022-08-30T05:23:36;7.87;;;4.20;;
8540;SDS011;4308;51.294;6.590;2022-08-30T05:26:12;5.40;;;3.33;;
8540;SDS011;4308;51.294;6.590;2022-08-30T05:28:40;6.50;;;3.43;;
8540;SDS011;4308;51.294;6.590;2022-08-30T05:31:27;5.67;;;3.80;;
8540;SDS011;4308;51.294;6.590;2022-08-30T05:33:55;5.80;;;3.63;;
8540;SDS011;4308;51.294;6.590;2022-08-30T05:36:24;6.90;;;3.87;;
8540;SDS011;4308;51.294;6.590;2022-08-30T05:38:52;4.97;;;3.73;;
8540;SDS011;4308;51.294;6.590;2022-08-30T05:41:20;3.90;;;3.00;;
8540;SDS011;4308;51.294;6.590;2022-08-30T05:43:53;4.63;;;3.30;;
8540;SDS011;4308;51.294;6.590;2022-08-30T05:46:21;5.30;;;3.80;;
8540;SDS011;4308;51.294;6.590;2022-08-30T05:48:49;3.83;;;2.67;;
8540;SDS011;4308;51.294;6.590;2022-08-30T05:51:19;7.70;;;3.90;;
8540;SDS011;4308;51.294;6.590;2022-08-30T05:53:47;5.67;;;3.03;;
8540;SDS011;4308;51.294;6.590;2022-08-30T05:56:16;8.17;;;3.60;;
8540;SDS011;4308;51.294;6.590;2022-08-30T05:58:44;5.80;;;3.17;;
8540;SDS011;4308;51.294;6.590;2022-08-30T06:01:45;5.57;;;3.20;;
8540;SDS011;4308;51.294;6.590;2022-08-30T06:04:06;9.47;;;4.03;;
8540;SDS011;4308;51.294;6.590;2022-08-30T06:06:35;6.30;;;2.50;;
8540;SDS011;4308;51.294;6.590;2022-08-30T06:09:03;5.53;;;2.90;;
8540;SDS011;4308;51.294;6.590;2022-08-30T06:11:32;5.77;;;3.10;;
8540;SDS011;4308;51.294;6.590;2022-08-30T06:13:59;5.83;;;3.33;;
8540;SDS011;4308;51.294;6.590;2022-08-30T06:16:27;3.87;;;2.80;;
8540;SDS011;4308;51.294;6.590;2022-08-30T06:18:56;6.53;;;4.00;;
8540;SDS011;4308;51.294;6.590;2022-08-30T06:21:28;6.67;;;3.80;;
8540;SDS011;4308;51.294;6.590;2022-08-30T06:23:56;5.90;;;3.03;;
8540;SDS011;4308;51.294;6.590;2022-08-30T06:26:24;8.13;;;5.10;;
8540;SDS011;4308;51.294;6.590;2022-08-30T06:28:52;4.93;;;3.50;;
8540;SDS011;4308;51.294;6.590;2022-08-30T06:31:20;6.37;;;4.27;;
8540;SDS011;4308;51.294;6.590;2022-08-30T06:33:48;3.87;;;2.73;;
8540;SDS011;4308;51.294;6.590;2022-08-30T06:36:21;6.83;;;3.37;;
8540;SDS011;4308;51.294;6.590;2022-08-30T06:38:49;5.10;;;2.83;;
8540;SDS011;4308;51.294;6.590;2022-08-30T06:41:19;4.30;;;3.60;;
8540;SDS011;4308;51.294;6.590;2022-08-30T06:43:47;5.57;;;3.67;;
8540;SDS011;4308;51.294;6.590;2022-08-30T06:46:25;5.10;;;3.23;;
8540;SDS011;4308;51.294;6.590;2022-08-30T06:48:52;3.87;;;2.57;;
8540;SDS011;4308;51.294;6.590;2022-08-30T06:51:25;7.43;;;3.13;;
8540;SDS011;4308;51.294;6.590;2022-08-30T06:53:53;6.10;;;3.83;;
8540;SDS011;4308;51.294;6.590;2022-08-30T06:56:22;5.00;;;2.93;;
8540;SDS011;4308;51.294;6.590;2022-08-30T06:58:50;6.60;;;2.83;;
8540;SDS011;4308;51.294;6.590;2022-08-30T07:01:19;4.27;;;3.03;;
8540;SDS011;4308;51.294;6.590;2022-08-30T07:03:47;7.77;;;3.97;;
8540;SDS011;4308;51.294;6.590;2022-08-30T07:06:15;4.90;;;3.20;;
8540;SDS011;4308;51.294;6.590;2022-08-30T07:08:44;8.23;;;3.53;;
8540;SDS011;4308;51.294;6.590;2022-08-30T07:11:12;14.23;;;3.60;;
8540;SDS011;4308;51.294;6.590;2022-08-30T07:13:39;2.90;;;2.17;;
8540;SDS011;4308;51.294;6.590;2022-08-30T07:16:08;5.23;;;3.53;;
8540;SDS011;4308;51.294;6.590;2022-08-30T07:18:35;4.27;;;2.47;;
8540;SDS011;4308;51.294;6.590;2022-08-30T07:21:07;5.00;;;3.30;;
8540;SDS011;4308;51.294;6.590;2022-08-30T07:23:35;4.80;;;3.43;;
8540;SDS011;4308;51.294;6.590;2022-08-30T07:26:04;6.27;;;3.43;;
8540;SDS011;4308;51.294;6.590;2022-08-30T07:28:32;3.83;;;3.20;;
8540;SDS011;4308;51.294;6.590;2022-08-30T07:30:59;4.23;;;3.20;;
8540;SDS011;4308;51.294;6.590;2022-08-30T07:33:27;5.23;;;2.33;;
8540;SDS011;4308;51.294;6.590;2022-08-30T07:35:54;5.33;;;3.70;;
8540;SDS011;4308;51.294;6.590;2022-08-30T07:38:22;4.40;;;3.33;;
8540;SDS011;4308;51.294;6.590;2022-08-30T07:40:51;6.37;;;3.40;;
8540;SDS011;4308;51.294;6.590;2022-08-30T07:43:19;5.93;;;2.83;;
8540;SDS011;4308;51.294;6.590;2022-08-30T07:45:46;4.77;;;3.80;;
8540;SDS011;4308;51.294;6.590;2022-08-30T07:48:14;3.30;;;2.93;;
8540;SDS011;4308;51.294;6.590;2022-08-30T07:50:42;5.87;;;3.37;;
8540;SDS011;4308;51.294;6.590;2022-08-30T07:53:10;4.87;;;3.27;;
8540;SDS011;4308;51.294;6.590;2022-08-30T07:55:38;5.73;;;3.00;;
8540;SDS011;4308;51.294;6.590;2022-08-30T07:58:06;5.40;;;3.90;;
8540;SDS011;4308;51.294;6.590;2022-08-30T08:00:33;4.27;;;2.87;;
8540;SDS011;4308;51.294;6.590;2022-08-30T08:03:07;5.10;;;2.70;;
8540;SDS011;4308;51.294;6.590;2022-08-30T08:05:44;7.40;;;3.90;;
8540;SDS011;4308;51.294;6.590;2022-08-30T08:08:11;3.20;;;2.47;;
8540;SDS011;4308;51.294;6.590;2022-08-30T08:10:40;4.87;;;2.87;;
8540;SDS011;4308;51.294;6.590;2022-08-30T08:13:08;3.13;;;2.37;;
8540;SDS011;4308;51.294;6.590;2022-08-30T08:15:35;2.63;;;2.17;;
8540;SDS011;4308;51.294;6.590;2022-08-30T08:18:03;7.43;;;2.43;;
8540;SDS011;4308;51.294;6.590;2022-08-30T08:20:32;12.40;;;3.20;;
8540;SDS011;4308;51.294;6.590;2022-08-30T08:23:00;3.40;;;2.53;;
8540;SDS011;4308;51.294;6.590;2022-08-30T08:25:28;7.67;;;3.27;;
8540;SDS011;4308;51.294;6.590;2022-08-30T08:27:56;3.70;;;2.67;;
8540;SDS011;4308;51.294;6.590;2022-08-30T08:30:23;4.77;;;3.07;;
8540;SDS011;4308;51.294;6.590;2022-08-30T08:32:51;3.13;;;2.43;;
8540;SDS011;4308;51.294;6.590;2022-08-30T08:35:18;3.20;;;2.50;;
8540;SDS011;4308;51.294;6.590;2022-08-30T08:37:46;4.93;;;2.03;;
8540;SDS011;4308;51.294;6.590;2022-08-30T08:40:15;5.07;;;2.90;;
8540;SDS011;4308;51.294;6.590;2022-08-30T08:42:58;4.20;;;2.33;;
8540;SDS011;4308;51.294;6.590;2022-08-30T08:45:33;4.77;;;3.00;;
8540;SDS011;4308;51.294;6.590;2022-08-30T08:48:22;3.33;;;2.30;;
8540;SDS011;4308;51.294;6.590;2022-08-30T08:50:57;3.77;;;2.80;;
8540;SDS011;4308;51.294;6.590;2022-08-30T08:53:29;2.97;;;2.13;;
8540;SDS011;4308;51.294;6.590;2022-08-30T08:56:13;4.20;;;2.47;;
8540;SDS011;4308;51.294;6.590;2022-08-30T09:01:10;3.80;;;2.73;;
8540;SDS011;4308;51.294;6.590;2022-08-30T09:03:38;5.63;;;2.13;;
8540;SDS011;4308;51.294;6.590;2022-08-30T09:06:10;14.40;;;4.03;;
8540;SDS011;4308;51.294;6.590;2022-08-30T09:08:41;2.07;;;1.87;;
8540;SDS011;4308;51.294;6.590;2022-08-30T09:11:09;5.23;;;2.60;;
8540;SDS011;4308;51.294;6.590;2022-08-30T09:13:38;7.37;;;2.60;;
8540;SDS011;4308;51.294;6.590;2022-08-30T09:16:06;2.63;;;2.10;;
8540;SDS011;4308;51.294;6.590;2022-08-30T09:18:42;3.53;;;2.50;;
8540;SDS011;4308;51.294;6.590;2022-08-30T09:21:11;5.53;;;2.47;;
8540;SDS011;4308;51.294;6.590;2022-08-30T09:23:49;4.10;;;2.50;;
8540;SDS011;4308;51.294;6.590;2022-08-30T09:26:26;3.07;;;2.30;;
8540;SDS011;4308;51.294;6.590;2022-08-30T09:28:54;8.30;;;3.13;;
8540;SDS011;4308;51.294;6.590;2022-08-30T09:31:23;4.73;;;2.00;;
8540;SDS011;4308;51.294;6.590;2022-08-30T09:34:04;9.23;;;2.70;;
8540;SDS011;4308;51.294;6.590;2022-08-30T09:36:33;7.27;;;2.90;;
8540;SDS011;4308;51.294;6.590;2022-08-30T09:39:12;6.10;;;2.70;;
8540;SDS011;4308;51.294;6.590;2022-08-30T09:41:42;4.27;;;3.07;;
8540;SDS011;4308;51.294;6.590;2022-08-30T09:46:59;4.53;;;2.60;;
8540;SDS011;4308;51.294;6.590;2022-08-30T09:57:18;7.27;;;3.03;;
8540;SDS011;4308;51.294;6.590;2022-08-30T10:00:19;2.47;;;1.80;;
8540;SDS011;4308;51.294;6.590;2022-08-30T10:05:24;2.77;;;1.97;;
8540;SDS011;4308;51.294;6.590;2022-08-30T10:18:33;8.00;;;2.23;;
8540;SDS011;4308;51.294;6.590;2022-08-30T10:21:07;3.60;;;2.00;;
8540;SDS011;4308;51.294;6.590;2022-08-30T10:23:51;6.73;;;2.60;;
8540;SDS011;4308;51.294;6.590;2022-08-30T10:26:34;3.43;;;1.60;;
8540;SDS011;4308;51.294;6.590;2022-08-30T10:29:27;4.83;;;2.00;;
8540;SDS011;4308;51.294;6.590;2022-08-30T10:31:51;4.40;;;2.20;;
8540;SDS011;4308;51.294;6.590;2022-08-30T10:34:20;5.43;;;1.40;;
8540;SDS011;4308;51.294;6.590;2022-08-30T10:37:00;2.10;;;1.43;;
8540;SDS011;4308;51.294;6.590;2022-08-30T10:39:35;4.30;;;2.07;;
8540;SDS011;4308;51.294;6.590;2022-08-30T10:42:09;4.60;;;1.93;;
8540;SDS011;4308;51.294;6.590;2022-08-30T10:44:40;4.90;;;1.90;;
8540;SDS011;4308;51.294;6.590;2022-08-30T10:49:56;3.93;;;1.90;;
8540;SDS011;4308;51.294;6.590;2022-08-30T10:55:05;5.67;;;2.27;;
8540;SDS011;4308;51.294;6.590;2022-08-30T10:57:33;4.53;;;1.77;;
8540;SDS011;4308;51.294;6.590;2022-08-30T11:00:08;2.37;;;1.90;;
8540;SDS011;4308;51.294;6.590;2022-08-30T11:02:55;1.27;;;1.17;;
8540;SDS011;4308;51.294;6.590;2022-08-30T11:11:40;4.33;;;1.80;;
8540;SDS011;4308;51.294;6.590;2022-08-30T11:13:46;4.20;;;1.80;;
8540;SDS011;4308;51.294;6.590;2022-08-30T11:16:15;3.30;;;2.27;;
8540;SDS011;4308;51.294;6.590;2022-08-30T11:18:50;2.63;;;2.00;;
8540;SDS011;4308;51.294;6.590;2022-08-30T11:21:35;4.90;;;2.13;;
8540;SDS011;4308;51.294;6.590;2022-08-30T11:44:39;4.80;;;2.37;;
8540;SDS011;4308;51.294;6.590;2022-08-30T11:50:00;2.80;;;2.23;;
8540;SDS011;4308;51.294;6.590;2022-08-30T11:55:27;8.87;;;1.97;;
8540;SDS011;4308;51.294;6.590;2022-08-30T12:08:03;2.90;;;2.10;;
8540;SDS011;4308;51.294;6.590;2022-08-30T12:10:35;2.33;;;2.10;;
8540;SDS011;4308;51.294;6.590;2022-08-30T12:13:03;2.30;;;1.90;;
8540;SDS011;4308;51.294;6.590;2022-08-30T12:18:19;3.13;;;1.90;;
8540;SDS011;4308;51.294;6.590;2022-08-30T12:20:48;1.20;;;1.10;;
8540;SDS011;4308;51.294;6.590;2022-08-30T12:25:52;6.20;;;1.87;;
8540;SDS011;4308;51.294;6.590;2022-08-30T12:28:42;2.13;;;1.77;;
8540;SDS011;4308;51.294;6.590;2022-08-30T12:31:10;2.30;;;2.10;;
8540;SDS011;4308;51.294;6.590;2022-08-30T12:33:40;3.60;;;1.50;;
8540;SDS011;4308;51.294;6.590;2022-08-30T12:36:28;6.27;;;1.30;;
8540;SDS011;4308;51.294;6.590;2022-08-30T12:39:08;2.10;;;1.40;;
8540;SDS011;4308;51.294;6.590;2022-08-30T12:41:36;1.73;;;1.30;;
8540;SDS011;4308;51.294;6.590;2022-08-30T12:44:13;3.03;;;1.60;;
8540;SDS011;4308;51.294;6.590;2022-08-30T12:46:42;2.20;;;1.53;;
8540;SDS011;4308;51.294;6.590;2022-08-30T12:49:12;2.67;;;1.53;;
8540;SDS011;4308;51.294;6.590;2022-08-30T12:51:42;5.83;;;1.90;;
8540;SDS011;4308;51.294;6.590;2022-08-30T12:54:43;3.03;;;1.40;;
8540;SDS011;4308;51.294;6.590;2022-08-30T12:57:03;2.43;;;1.43;;
8540;SDS011;4308;51.294;6.590;2022-08-30T12:59:52;3.53;;;2.10;;
8540;SDS011;4308;51.294;6.590;2022-08-30T13:02:45;3.27;;;1.63;;
8540;SDS011;4308;51.294;6.590;2022-08-30T13:05:26;1.73;;;1.63;;
8540;SDS011;4308;51.294;6.590;2022-08-30T13:10:59;3.40;;;1.40;;
8540;SDS011;4308;51.294;6.590;2022-08-30T13:18:35;5.83;;;1.90;;
8540;SDS011;4308;51.294;6.590;2022-08-30T13:24:09;3.20;;;1.50;;
8540;SDS011;4308;51.294;6.590;2022-08-30T13:26:37;3.97;;;1.80;;
8540;SDS011;4308;51.294;6.590;2022-08-30T13:29:06;3.33;;;1.70;;
8540;SDS011;4308;51.294;6.590;2022-08-30T13:31:36;2.60;;;1.80;;
8540;SDS011;4308;51.294;6.590;2022-08-30T13:34:04;3.00;;;2.00;;
8540;SDS011;4308;51.294;6.590;2022-08-30T13:36:33;3.07;;;1.57;;
8540;SDS011;4308;51.294;6.590;2022-08-30T13:39:02;2.50;;;1.83;;
8540;SDS011;4308;51.294;6.590;2022-08-30T13:41:30;3.93;;;1.57;;
8540;SDS011;4308;51.294;6.590;2022-08-30T13:44:00;5.27;;;2.23;;
8540;SDS011;4308;51.294;6.590;2022-08-30T13:46:38;4.93;;;2.47;;
8540;SDS011;4308;51.294;6.590;2022-08-30T13:49:08;1.93;;;1.57;;
8540;SDS011;4308;51.294;6.590;2022-08-30T13:51:57;3.30;;;1.63;;
8540;SDS011;4308;51.294;6.590;2022-08-30T13:54:45;5.37;;;2.30;;
8540;SDS011;4308;51.294;6.590;2022-08-30T13:57:16;1.97;;;1.70;;
8540;SDS011;4308;51.294;6.590;2022-08-30T14:00:05;4.10;;;3.20;;
8540;SDS011;4308;51.294;6.590;2022-08-30T14:02:33;2.30;;;1.80;;
8540;SDS011;4308;51.294;6.590;2022-08-30T14:05:10;3.77;;;1.90;;
8540;SDS011;4308;51.294;6.590;2022-08-30T14:08:00;4.70;;;2.50;;
8540;SDS011;4308;51.294;6.590;2022-08-30T14:10:32;9.73;;;2.40;;
8540;SDS011;4308;51.294;6.590;2022-08-30T14:13:12;5.80;;;2.00;;
8540;SDS011;4308;51.294;6.590;2022-08-30T14:15:49;2.00;;;1.80;;
8540;SDS011;4308;51.294;6.590;2022-08-30T14:18:37;5.60;;;1.50;;
8540;SDS011;4308;51.294;6.590;2022-08-30T14:21:04;4.87;;;2.17;;
8540;SDS011;4308;51.294;6.590;2022-08-30T14:23:35;2.93;;;1.70;;
8540;SDS011;4308;51.294;6.590;2022-08-30T14:26:09;3.73;;;2.53;;
8540;SDS011;4308;51.294;6.590;2022-08-30T14:28:44;4.17;;;2.47;;
8540;SDS011;4308;51.294;6.590;2022-08-30T14:31:27;2.67;;;1.93;;
8540;SDS011;4308;51.294;6.590;2022-08-30T14:33:55;2.83;;;1.70;;
8540;SDS011;4308;51.294;6.590;2022-08-30T14:36:24;4.87;;;1.90;;
8540;SDS011;4308;51.294;6.590;2022-08-30T14:38:56;3.00;;;2.10;;
8540;SDS011;4308;51.294;6.590;2022-08-30T14:41:24;4.33;;;1.53;;
8540;SDS011;4308;51.294;6.590;2022-08-30T14:43:58;3.43;;;2.70;;
8540;SDS011;4308;51.294;6.590;2022-08-30T14:46:37;3.00;;;2.07;;
8540;SDS011;4308;51.294;6.590;2022-08-30T14:49:07;2.03;;;1.60;;
8540;SDS011;4308;51.294;6.590;2022-08-30T14:51:43;4.10;;;2.83;;
8540;SDS011;4308;51.294;6.590;2022-08-30T14:54:22;5.10;;;2.97;;
8540;SDS011;4308;51.294;6.590;2022-08-30T14:56:54;2.77;;;1.53;;
8540;SDS011;4308;51.294;6.590;2022-08-30T14:59:24;5.30;;;1.47;;
8540;SDS011;4308;51.294;6.590;2022-08-30T15:01:52;2.30;;;2.00;;
8540;SDS011;4308;51.294;6.590;2022-08-30T15:04:22;4.20;;;1.80;;
8540;SDS011;4308;51.294;6.590;2022-08-30T15:06:56;4.80;;;2.03;;
8540;SDS011;4308;51.294;6.590;2022-08-30T15:09:24;3.50;;;1.97;;
8540;SDS011;4308;51.294;6.590;2022-08-30T15:11:52;4.03;;;2.30;;
8540;SDS011;4308;51.294;6.590;2022-08-30T15:14:24;3.27;;;1.40;;
8540;SDS011;4308;51.294;6.590;2022-08-30T15:16:56;3.07;;;1.40;;
8540;SDS011;4308;51.294;6.590;2022-08-30T15:19:25;5.13;;;2.03;;
8540;SDS011;4308;51.294;6.590;2022-08-30T15:21:59;1.70;;;1.50;;
8540;SDS011;4308;51.294;6.590;2022-08-30T15:24:27;7.03;;;2.40;;
8540;SDS011;4308;51.294;6.590;2022-08-30T15:26:56;9.40;;;2.13;;
8540;SDS011;4308;51.294;6.590;2022-08-30T15:29:25;1.83;;;1.73;;
8540;SDS011;4308;51.294;6.590;2022-08-30T15:31:56;2.70;;;1.60;;
8540;SDS011;4308;51.294;6.590;2022-08-30T15:34:24;4.20;;;1.73;;
8540;SDS011;4308;51.294;6.590;2022-08-30T15:36:54;2.37;;;1.70;;
8540;SDS011;4308;51.294;6.590;2022-08-30T15:39:21;2.97;;;1.63;;
8540;SDS011;4308;51.294;6.590;2022-08-30T15:41:50;3.33;;;1.50;;
8540;SDS011;4308;51.294;6.590;2022-08-30T15:44:24;2.67;;;1.70;;
8540;SDS011;4308;51.294;6.590;2022-08-30T15:46:52;3.17;;;1.90;;
8540;SDS011;4308;51.294;6.590;2022-08-30T15:49:21;1.77;;;1.67;;
8540;SDS011;4308;51.294;6.590;2022-08-30T15:51:49;2.73;;;1.57;;
8540;SDS011;4308;51.294;6.590;2022-08-30T15:54:20;4.53;;;1.87;;
8540;SDS011;4308;51.294;6.590;2022-08-30T15:56:49;1.43;;;1.33;;
8540;SDS011;4308;51.294;6.590;2022-08-30T15:59:17;3.43;;;1.50;;
8540;SDS011;4308;51.294;6.590;2022-08-30T16:01:45;4.43;;;2.00;;
8540;SDS011;4308;51.294;6.590;2022-08-30T16:04:14;3.10;;;2.13;;
8540;SDS011;4308;51.294;6.590;2022-08-30T16:06:43;1.77;;;1.37;;
8540;SDS011;4308;51.294;6.590;2022-08-30T16:09:10;2.07;;;1.33;;
8540;SDS011;4308;51.294;6.590;2022-08-30T16:11:38;3.20;;;1.93;;
8540;SDS011;4308;51.294;6.590;2022-08-30T16:14:06;4.37;;;2.00;;
8540;SDS011;4308;51.294;6.590;2022-08-30T16:16:34;2.40;;;1.80;;
8540;SDS011;4308;51.294;6.590;2022-08-30T16:19:02;2.07;;;1.50;;
8540;SDS011;4308;51.294;6.590;2022-08-30T16:21:31;2.87;;;1.60;;
8540;SDS011;4308;51.294;6.590;2022-08-30T16:24:00;2.60;;;1.70;;
8540;SDS011;4308;51.294;6.590;2022-08-30T16:26:28;1.77;;;1.63;;
8540;SDS011;4308;51.294;6.590;2022-08-30T16:28:57;2.17;;;1.60;;
8540;SDS011;4308;51.294;6.590;2022-08-30T16:31:25;4.90;;;1.50;;
8540;SDS011;4308;51.294;6.590;2022-08-30T16:33:54;2.77;;;1.63;;
8540;SDS011;4308;51.294;6.590;2022-08-30T16:36:29;2.40;;;1.40;;
8540;SDS011;4308;51.294;6.590;2022-08-30T16:38:57;1.63;;;1.53;;
8540;SDS011;4308;51.294;6.590;2022-08-30T16:41:25;3.67;;;1.67;;
8540;SDS011;4308;51.294;6.590;2022-08-30T16:43:52;3.23;;;1.77;;
8540;SDS011;4308;51.294;6.590;2022-08-30T16:46:21;4.57;;;2.10;;
8540;SDS011;4308;51.294;6.590;2022-08-30T16:48:57;3.93;;;1.80;;
8540;SDS011;4308;51.294;6.590;2022-08-30T16:51:26;1.00;;;1.00;;
8540;SDS011;4308;51.294;6.590;2022-08-30T16:53:55;2.73;;;1.30;;
8540;SDS011;4308;51.294;6.590;2022-08-30T16:56:23;2.00;;;1.40;;
8540;SDS011;4308;51.294;6.590;2022-08-30T16:58:53;5.00;;;2.00;;
8540;SDS011;4308;51.294;6.590;2022-08-30T17:01:27;3.30;;;1.40;;
8540;SDS011;4308;51.294;6.590;2022-08-30T17:03:55;1.73;;;1.30;;
8540;SDS011;4308;51.294;6.590;2022-08-30T17:06:23;2.47;;;1.60;;